Clancy, Montana
Current Conditions -  °F | °C
As of 9:53 PM on Friday 24 Oct 2014 (Local Time) from KHLN Reporting Station
Few Clouds Few Clouds  
Wind Chill: 45°   Ceiling: Unl
Heat Index: 48°   Visibility: 10mi
Dew Point: 41°   Wind: 6mph
Humidity: 77%   Direction: 240°WSW
Pressure: 30.08"   Gusts: NA
Location:  46.47°N, 111.97°W
Report Text: KHLN 250353Z AUTO 24005KT 10SM FEW110 09/05 A3008 RMK AO2 SLP200 T00890050
Loading
Personal Weather Stations






























Interactive Weather Map
Tropical Storm Tracking
New forecast layout! Learn more

10-Day Weather Forecast

Advertisements
Track Severe Weather on mobile